createdAt,value
2022-09-15T00:01:54.993Z,17.98
2022-09-15T00:05:01.224Z,18.75
2022-09-15T00:08:06.489Z,18.88
2022-09-15T00:11:24.433Z,18.55
2022-09-15T00:14:30.148Z,18.58
2022-09-15T00:17:36.342Z,19.67
2022-09-15T00:20:44.227Z,18.70
2022-09-15T00:23:50.957Z,19.38
2022-09-15T00:26:57.607Z,21.08
2022-09-15T00:30:05.196Z,22.08
2022-09-15T00:33:12.487Z,21.23
2022-09-15T00:36:19.346Z,21.73
2022-09-15T00:39:25.794Z,21.30
2022-09-15T00:42:31.639Z,20.73
2022-09-15T00:45:37.567Z,21.02
2022-09-15T00:48:52.939Z,19.92
2022-09-15T00:52:04.241Z,18.40
2022-09-15T00:55:26.054Z,19.55
2022-09-15T00:58:38.683Z,20.13
2022-09-15T01:01:47.207Z,20.30
2022-09-15T01:04:58.222Z,21.00
2022-09-15T01:08:19.278Z,20.23
2022-09-15T01:11:25.115Z,20.63
2022-09-15T01:14:30.814Z,20.25
2022-09-15T01:18:13.340Z,19.50
2022-09-15T01:21:37.000Z,20.75
2022-09-15T01:25:15.951Z,20.52
2022-09-15T01:28:47.764Z,19.20
2022-09-15T01:32:43.822Z,22.40
2022-09-15T01:36:10.780Z,17.80
2022-09-15T01:44:15.504Z,20.40
2022-09-15T01:47:23.297Z,20.95
2022-09-15T01:50:36.922Z,20.52
2022-09-15T01:53:42.147Z,21.48
2022-09-15T01:56:48.725Z,20.73
2022-09-15T01:59:56.325Z,19.70
2022-09-15T02:03:12.167Z,20.02
2022-09-15T02:06:22.233Z,21.05
2022-09-15T02:09:36.809Z,20.15
2022-09-15T02:12:48.269Z,19.15
2022-09-15T02:19:31.596Z,18.42
2022-09-15T02:22:41.093Z,18.90
2022-09-15T02:25:51.964Z,17.38
2022-09-15T02:29:03.768Z,19.75
2022-09-15T02:32:11.901Z,19.20
2022-09-15T02:35:17.562Z,19.00
2022-09-15T02:38:23.963Z,17.00
2022-09-15T02:41:29.870Z,17.80
2022-09-15T02:44:35.580Z,18.33
2022-09-15T02:47:41.120Z,18.38
2022-09-15T02:50:46.619Z,17.13
2022-09-15T02:53:53.666Z,17.45
2022-09-15T02:57:00.412Z,18.85
2022-09-15T03:00:13.374Z,17.48
2022-09-15T03:03:20.397Z,16.58
2022-09-15T03:06:25.872Z,17.85
2022-09-15T03:09:31.341Z,16.83
2022-09-15T03:12:41.700Z,17.85
2022-09-15T03:15:47.253Z,17.10
2022-09-15T03:18:56.067Z,19.70
2022-09-15T03:22:01.247Z,19.45
2022-09-15T03:25:07.781Z,17.77
2022-09-15T03:28:13.166Z,17.73
2022-09-15T03:31:20.207Z,17.25
2022-09-15T03:34:25.845Z,17.00
2022-09-15T03:37:31.628Z,16.38
2022-09-15T03:40:38.334Z,17.33
2022-09-15T03:43:44.100Z,16.77
2022-09-15T03:46:49.670Z,15.35
2022-09-15T03:49:55.762Z,16.08
2022-09-15T03:53:01.871Z,16.02
2022-09-15T03:56:26.086Z,16.08
2022-09-15T03:59:31.503Z,15.93
2022-09-15T04:02:38.162Z,16.05
2022-09-15T04:05:43.687Z,15.63
2022-09-15T04:08:50.919Z,15.57
2022-09-15T04:11:56.723Z,15.65
2022-09-15T04:15:03.038Z,14.93
2022-09-15T04:18:08.181Z,15.48
2022-09-15T04:21:16.293Z,15.85
2022-09-15T04:24:21.954Z,16.08
2022-09-15T04:27:28.246Z,15.20
2022-09-15T04:30:33.953Z,14.10
2022-09-15T04:33:41.227Z,16.25
2022-09-15T04:36:46.888Z,14.43
2022-09-15T04:39:52.728Z,15.48
2022-09-15T04:42:58.508Z,14.68
2022-09-15T04:46:04.302Z,14.45
2022-09-15T04:49:09.885Z,15.75
2022-09-15T04:52:15.117Z,15.80
2022-09-15T04:55:20.729Z,14.90
2022-09-15T04:58:26.045Z,15.63
2022-09-15T05:01:34.596Z,15.75
2022-09-15T05:04:40.498Z,15.43
2022-09-15T05:07:47.896Z,14.55
2022-09-15T05:10:53.806Z,15.32
2022-09-15T05:14:00.197Z,14.93
2022-09-15T05:17:06.031Z,15.18
2022-09-15T05:20:11.774Z,16.27
2022-09-15T05:23:17.608Z,16.35
2022-09-15T05:26:26.120Z,16.25
2022-09-15T05:29:31.760Z,16.23
2022-09-15T05:32:37.511Z,15.45
2022-09-15T05:36:00.937Z,15.95
2022-09-15T05:39:06.911Z,16.00
2022-09-15T05:42:12.785Z,15.25
2022-09-15T05:45:18.068Z,16.70
2022-09-15T05:48:24.977Z,16.80
2022-09-15T05:51:30.530Z,15.55
2022-09-15T05:54:36.023Z,15.77
2022-09-15T05:57:41.366Z,15.38
2022-09-15T06:00:47.018Z,17.65
2022-09-15T06:03:54.138Z,16.90
2022-09-15T06:06:59.698Z,18.52
2022-09-15T06:10:05.678Z,19.45
2022-09-15T06:13:10.950Z,21.85
2022-09-15T06:16:22.855Z,21.05
2022-09-15T06:19:28.659Z,24.83
2022-09-15T06:22:34.093Z,22.38
2022-09-15T06:25:39.621Z,24.45
2022-09-15T06:28:51.339Z,25.83
2022-09-15T06:32:03.418Z,26.80
2022-09-15T06:35:09.745Z,26.05
2022-09-15T06:38:15.927Z,26.13
2022-09-15T06:41:22.316Z,25.88
2022-09-15T06:44:28.243Z,25.15
2022-09-15T06:47:34.525Z,23.90
2022-09-15T06:50:39.868Z,22.80
2022-09-15T06:53:46.258Z,22.98
2022-09-15T06:56:51.623Z,22.80
2022-09-15T06:59:57.187Z,23.98
2022-09-15T07:03:03.251Z,23.38
2022-09-15T07:06:11.147Z,25.40
2022-09-15T07:09:16.896Z,25.65
2022-09-15T07:12:22.474Z,24.50
2022-09-15T07:15:28.128Z,23.85
2022-09-15T07:18:34.368Z,24.65
2022-09-15T07:21:39.867Z,23.17
2022-09-15T07:24:45.242Z,27.35
2022-09-15T07:27:50.385Z,25.52
2022-09-15T07:30:56.038Z,26.63
2022-09-15T07:34:02.836Z,26.40
2022-09-15T07:37:08.933Z,30.17
2022-09-15T07:40:14.938Z,31.98
2022-09-15T07:43:21.047Z,29.50
2022-09-15T07:46:29.863Z,31.88
2022-09-15T07:49:35.771Z,32.55
2022-09-15T07:52:41.448Z,34.83
2022-09-15T07:55:52.036Z,31.80
2022-09-15T07:58:58.105Z,34.05
2022-09-15T08:02:03.550Z,33.13
2022-09-15T08:05:09.344Z,30.90
2022-09-15T08:08:14.585Z,31.05
2022-09-15T08:11:21.563Z,31.63
2022-09-15T08:14:26.912Z,30.73
2022-09-15T08:17:34.597Z,30.35
2022-09-15T08:20:41.165Z,30.88
2022-09-15T08:23:56.190Z,27.88
2022-09-15T08:27:03.349Z,29.20
2022-09-15T08:30:09.700Z,29.83
2022-09-15T08:33:15.174Z,30.85
2022-09-15T08:36:20.823Z,26.80
2022-09-15T08:39:26.461Z,25.52
2022-09-15T08:42:32.402Z,26.85
2022-09-15T08:45:53.182Z,25.08
2022-09-15T08:49:11.033Z,25.00
2022-09-15T08:52:33.134Z,25.85
2022-09-15T08:55:51.026Z,26.13
2022-09-15T08:58:56.522Z,27.77
2022-09-15T09:02:26.915Z,23.98
2022-09-15T09:05:56.479Z,21.33
2022-09-15T09:09:16.984Z,20.20
2022-09-15T09:13:07.048Z,21.55
2022-09-15T09:16:30.533Z,21.52
2022-09-15T09:19:53.090Z,20.92
2022-09-15T09:23:01.734Z,21.92
2022-09-15T09:26:12.329Z,22.45
2022-09-15T09:29:30.484Z,16.45
2022-09-15T09:32:54.476Z,17.52
2022-09-15T09:36:02.687Z,17.30
2022-09-15T09:39:14.515Z,15.88
2022-09-15T09:42:29.512Z,15.27
2022-09-15T09:45:35.053Z,14.90
2022-09-15T09:48:43.960Z,12.98
2022-09-15T09:51:54.050Z,12.88
2022-09-15T09:55:16.742Z,14.10
2022-09-15T09:58:25.814Z,12.75
2022-09-15T10:01:31.631Z,14.77
2022-09-15T10:04:36.762Z,13.93
2022-09-15T10:07:46.770Z,12.07
2022-09-15T10:11:00.155Z,10.02
2022-09-15T10:14:06.827Z,7.72
2022-09-15T10:17:19.962Z,11.02
2022-09-15T10:20:36.240Z,5.38
2022-09-15T10:23:44.090Z,5.43
2022-09-15T10:26:49.609Z,4.78
2022-09-15T10:29:56.710Z,5.25
2022-09-15T10:33:24.894Z,4.07
2022-09-15T10:36:32.405Z,3.70
2022-09-15T10:40:00.877Z,3.92
2022-09-15T10:43:18.124Z,3.42
2022-09-15T10:47:01.244Z,3.03
2022-09-15T10:50:18.556Z,2.92
2022-09-15T10:53:29.782Z,2.85
2022-09-15T10:56:47.356Z,3.35
2022-09-15T11:00:12.880Z,3.25
2022-09-15T11:03:39.125Z,5.35
2022-09-15T11:07:07.625Z,2.40
2022-09-15T11:10:27.496Z,2.70
2022-09-15T11:13:56.419Z,2.83
2022-09-15T11:17:21.480Z,3.17
2022-09-15T11:20:56.831Z,2.65
2022-09-15T11:24:33.977Z,2.40
2022-09-15T11:28:00.376Z,2.70
2022-09-15T11:31:22.349Z,3.60
2022-09-15T11:34:39.447Z,3.58
2022-09-15T11:37:49.001Z,4.25
2022-09-15T11:41:09.665Z,2.88
2022-09-15T11:44:34.325Z,3.83
2022-09-15T11:47:52.045Z,3.47
2022-09-15T11:51:01.918Z,4.00
2022-09-15T11:54:24.621Z,3.30
2022-09-15T11:57:44.742Z,3.50
2022-09-15T12:01:11.157Z,3.53
2022-09-15T12:04:26.042Z,3.47
2022-09-15T12:07:38.036Z,3.70
2022-09-15T12:10:49.284Z,4.30
2022-09-15T12:13:56.507Z,4.10
2022-09-15T12:17:04.779Z,3.25
2022-09-15T12:20:27.242Z,3.17
2022-09-15T12:23:41.477Z,3.30
2022-09-15T12:26:47.965Z,2.97
2022-09-15T12:29:58.654Z,2.40
2022-09-15T12:33:42.420Z,3.15
2022-09-15T12:36:51.457Z,3.28
2022-09-15T12:39:57.199Z,3.92
2022-09-15T12:43:11.856Z,2.35
2022-09-15T12:46:18.967Z,3.10
2022-09-15T12:49:32.993Z,3.47
2022-09-15T12:52:46.136Z,3.20
2022-09-15T12:55:59.834Z,4.70
2022-09-15T12:59:07.321Z,3.35
2022-09-15T13:02:46.699Z,3.58
2022-09-15T13:06:11.810Z,3.00
2022-09-15T13:09:28.293Z,3.80
2022-09-15T13:12:38.950Z,2.78
2022-09-15T13:15:48.547Z,3.72
2022-09-15T13:19:17.793Z,3.00
2022-09-15T13:22:30.305Z,4.30
2022-09-15T13:25:40.330Z,3.33
2022-09-15T13:28:50.425Z,4.82
2022-09-15T13:32:18.824Z,3.78
2022-09-15T13:35:31.591Z,3.22
2022-09-15T13:38:56.797Z,3.90
2022-09-15T13:42:20.864Z,4.35
2022-09-15T13:45:47.287Z,3.00
2022-09-15T13:49:08.000Z,4.20
2022-09-15T13:52:24.590Z,4.10
2022-09-15T13:55:38.751Z,5.38
2022-09-15T13:59:07.041Z,4.35
2022-09-15T14:02:13.303Z,4.07
2022-09-15T14:05:20.502Z,3.45
2022-09-15T14:08:31.056Z,3.80
2022-09-15T14:11:38.188Z,3.80
2022-09-15T14:14:53.935Z,4.10
2022-09-15T14:17:59.307Z,2.80
2022-09-15T14:21:06.074Z,3.50
2022-09-15T14:24:21.415Z,3.95
2022-09-15T14:27:31.073Z,3.40
2022-09-15T14:30:37.064Z,3.13
2022-09-15T14:33:42.898Z,2.75
2022-09-15T14:37:06.231Z,4.13
2022-09-15T14:40:28.407Z,3.85
2022-09-15T14:43:36.469Z,3.35
2022-09-15T14:46:41.959Z,2.72
2022-09-15T14:49:48.447Z,3.35
2022-09-15T14:53:06.095Z,3.08
2022-09-15T14:56:25.229Z,2.88
2022-09-15T14:59:49.077Z,2.85
2022-09-15T15:03:03.630Z,2.55
2022-09-15T15:06:35.877Z,3.60
2022-09-15T15:09:57.026Z,1.80
2022-09-15T15:16:26.160Z,3.72
2022-09-15T15:19:41.123Z,1.85
2022-09-15T15:22:47.925Z,2.60
2022-09-15T15:25:55.020Z,2.28
2022-09-15T15:29:01.317Z,4.13
2022-09-15T15:32:12.930Z,3.22
2022-09-15T15:35:19.741Z,3.35
2022-09-15T15:38:27.400Z,4.03
2022-09-15T15:41:41.837Z,2.63
2022-09-15T15:45:02.731Z,3.22
2022-09-15T15:48:10.260Z,3.33
2022-09-15T15:51:16.413Z,2.65
2022-09-15T15:54:23.642Z,2.83
2022-09-15T15:57:34.670Z,3.05
2022-09-15T16:00:51.537Z,2.50
2022-09-15T16:03:56.713Z,3.25
2022-09-15T16:07:02.004Z,2.20
2022-09-15T16:10:09.194Z,3.83
2022-09-15T16:13:16.962Z,2.80
2022-09-15T16:16:25.406Z,2.58
2022-09-15T16:19:31.492Z,3.75
2022-09-15T16:22:38.333Z,3.38
2022-09-15T16:25:59.922Z,2.88
2022-09-15T16:29:06.225Z,4.03
2022-09-15T16:32:21.912Z,3.10
2022-09-15T16:35:37.422Z,1.95
2022-09-15T16:38:44.644Z,3.25
2022-09-15T16:41:50.813Z,3.38
2022-09-15T16:44:56.813Z,3.70
2022-09-15T16:48:02.854Z,3.60
2022-09-15T16:51:30.989Z,2.40
2022-09-15T16:54:38.347Z,2.22
2022-09-15T16:57:43.906Z,2.53
2022-09-15T17:00:54.220Z,3.38
2022-09-15T17:03:59.877Z,3.92
2022-09-15T17:07:05.407Z,4.90
2022-09-15T17:10:10.955Z,4.53
2022-09-15T17:13:21.191Z,4.38
2022-09-15T17:16:27.901Z,4.25
2022-09-15T17:19:33.612Z,4.75
2022-09-15T17:22:39.015Z,2.88
2022-09-15T17:25:49.282Z,4.13
2022-09-15T17:28:55.688Z,3.75
2022-09-15T17:32:01.868Z,5.40
2022-09-15T17:35:27.812Z,3.22
2022-09-15T17:38:33.878Z,3.58
2022-09-15T17:41:39.144Z,3.97
2022-09-15T17:44:44.877Z,2.63
2022-09-15T17:47:52.132Z,3.53
2022-09-15T17:50:57.765Z,4.35
2022-09-15T17:54:03.594Z,5.43
2022-09-15T17:57:09.997Z,5.82
2022-09-15T18:00:17.801Z,5.97
2022-09-15T18:03:33.592Z,4.32
2022-09-15T18:06:45.259Z,4.15
2022-09-15T18:09:51.081Z,4.55
2022-09-15T18:12:57.576Z,3.42
2022-09-15T18:16:08.720Z,5.30
2022-09-15T18:19:15.182Z,11.98
2022-09-15T18:22:24.068Z,10.15
2022-09-15T18:25:37.225Z,7.47
2022-09-15T18:28:44.047Z,6.13
2022-09-15T18:31:51.509Z,6.10
2022-09-15T18:34:56.907Z,5.97
2022-09-15T18:38:02.182Z,4.60
2022-09-15T18:41:12.015Z,5.32
2022-09-15T18:44:17.606Z,5.18
2022-09-15T18:47:22.955Z,5.82
2022-09-15T18:50:28.430Z,8.27
2022-09-15T18:53:36.015Z,6.68
2022-09-15T18:56:41.290Z,5.18
2022-09-15T18:59:47.883Z,6.28
2022-09-15T19:03:01.620Z,4.07
2022-09-15T19:06:07.833Z,4.68
2022-09-15T19:09:13.602Z,4.43
2022-09-15T19:15:31.606Z,4.75
2022-09-15T19:18:37.424Z,4.40
2022-09-15T19:21:42.833Z,4.20
2022-09-15T19:24:48.427Z,4.13
2022-09-15T19:27:53.972Z,4.05
2022-09-15T19:30:59.800Z,3.60
2022-09-15T19:34:06.951Z,4.28
2022-09-15T19:37:18.345Z,4.63
2022-09-15T19:40:24.807Z,3.30
2022-09-15T19:43:30.620Z,4.40
2022-09-15T19:46:36.126Z,5.20
2022-09-15T19:49:41.877Z,4.65
2022-09-15T19:52:47.375Z,4.90
2022-09-15T19:55:53.019Z,4.53
2022-09-15T19:59:00.172Z,4.43
2022-09-15T20:02:05.958Z,4.60
2022-09-15T20:08:36.951Z,4.90
2022-09-15T20:11:42.227Z,5.18
2022-09-15T20:14:47.897Z,4.80
2022-09-15T20:17:53.058Z,4.95
2022-09-15T20:21:00.137Z,4.88
2022-09-15T20:24:06.247Z,7.63
2022-09-15T20:27:12.435Z,6.05
2022-09-15T20:30:18.493Z,6.75
2022-09-15T20:33:26.681Z,6.30
2022-09-15T20:36:36.846Z,5.95
2022-09-15T20:39:42.588Z,5.70
2022-09-15T20:42:50.597Z,5.57
2022-09-15T20:46:01.775Z,4.93
2022-09-15T20:49:07.164Z,5.78
2022-09-15T20:52:12.798Z,4.10
2022-09-15T20:55:18.222Z,6.80
2022-09-15T20:58:24.899Z,5.63
2022-09-15T21:01:37.047Z,4.70
2022-09-15T21:04:44.155Z,4.55
2022-09-15T21:07:49.441Z,4.55
2022-09-15T21:10:56.134Z,4.25
2022-09-15T21:14:01.800Z,4.82
2022-09-15T21:17:08.226Z,5.05
2022-09-15T21:20:14.228Z,5.53
2022-09-15T21:23:20.251Z,6.75
2022-09-15T21:26:28.185Z,6.75
2022-09-15T21:29:34.692Z,8.10
2022-09-15T21:32:40.463Z,6.05
2022-09-15T21:35:49.333Z,6.07
2022-09-15T21:38:56.764Z,7.38
2022-09-15T21:42:02.168Z,6.40
2022-09-15T21:45:08.925Z,6.85
2022-09-15T21:48:14.855Z,6.40
2022-09-15T21:51:24.990Z,6.38
2022-09-15T21:54:32.175Z,7.18
2022-09-15T21:57:37.586Z,6.18
2022-09-15T22:00:42.973Z,6.57
2022-09-15T22:03:54.059Z,6.38
2022-09-15T22:06:59.333Z,7.25
2022-09-15T22:10:05.459Z,5.60
2022-09-15T22:13:12.129Z,6.18
2022-09-15T22:16:20.428Z,5.18
2022-09-15T22:19:26.015Z,6.70
2022-09-15T22:22:32.227Z,4.80
2022-09-15T22:25:37.943Z,5.10
2022-09-15T22:28:43.814Z,5.40
2022-09-15T22:31:49.106Z,4.72
2022-09-15T22:34:55.224Z,5.28
2022-09-15T22:38:00.824Z,4.97
2022-09-15T22:41:09.673Z,5.47
2022-09-15T22:44:20.651Z,5.03
2022-09-15T22:47:26.120Z,6.53
2022-09-15T22:50:31.678Z,5.95
2022-09-15T22:53:37.204Z,6.22
2022-09-15T22:56:43.063Z,7.30
2022-09-15T22:59:48.483Z,7.15
2022-09-15T23:02:54.400Z,5.50
2022-09-15T23:06:00.978Z,5.32
2022-09-15T23:09:11.296Z,6.13
2022-09-15T23:12:16.887Z,5.90
2022-09-15T23:15:22.660Z,7.03
2022-09-15T23:18:29.084Z,6.90
2022-09-15T23:21:35.314Z,7.65
2022-09-15T23:24:41.467Z,6.47
2022-09-15T23:27:47.335Z,6.38
2022-09-15T23:30:55.189Z,5.95
2022-09-15T23:34:00.897Z,7.63
2022-09-15T23:37:06.185Z,6.78
2022-09-15T23:40:12.593Z,6.70
2022-09-15T23:43:18.521Z,7.70
2022-09-15T23:46:24.203Z,7.22
2022-09-15T23:49:30.055Z,7.22
2022-09-15T23:52:35.733Z,8.18
2022-09-15T23:55:41.300Z,7.78
2022-09-15T23:58:47.100Z,8.02
